sensor_id;sensor_type;location;lat;lon;timestamp;P1;durP1;ratioP1;P2;durP2;ratioP2
8365;SDS011;4220;42.502;24.188;2022-12-07T00:00:18;19.03;;;12.53;;
8365;SDS011;4220;42.502;24.188;2022-12-07T00:02:46;17.37;;;12.27;;
8365;SDS011;4220;42.502;24.188;2022-12-07T00:05:13;17.10;;;12.17;;
8365;SDS011;4220;42.502;24.188;2022-12-07T00:07:40;20.67;;;12.90;;
8365;SDS011;4220;42.502;24.188;2022-12-07T00:10:07;20.00;;;12.37;;
8365;SDS011;4220;42.502;24.188;2022-12-07T00:12:36;18.90;;;12.17;;
8365;SDS011;4220;42.502;24.188;2022-12-07T00:15:04;18.67;;;12.97;;
8365;SDS011;4220;42.502;24.188;2022-12-07T00:17:31;18.87;;;13.23;;
8365;SDS011;4220;42.502;24.188;2022-12-07T00:19:58;18.90;;;13.73;;
8365;SDS011;4220;42.502;24.188;2022-12-07T00:22:25;18.67;;;13.07;;
8365;SDS011;4220;42.502;24.188;2022-12-07T00:24:52;17.93;;;12.90;;
8365;SDS011;4220;42.502;24.188;2022-12-07T00:27:19;20.50;;;13.90;;
8365;SDS011;4220;42.502;24.188;2022-12-07T00:29:47;20.07;;;12.97;;
8365;SDS011;4220;42.502;24.188;2022-12-07T00:32:14;22.83;;;14.37;;
8365;SDS011;4220;42.502;24.188;2022-12-07T00:34:40;25.23;;;14.87;;
8365;SDS011;4220;42.502;24.188;2022-12-07T00:37:07;21.93;;;15.30;;
8365;SDS011;4220;42.502;24.188;2022-12-07T00:39:34;24.50;;;15.23;;
8365;SDS011;4220;42.502;24.188;2022-12-07T00:42:01;25.33;;;15.70;;
8365;SDS011;4220;42.502;24.188;2022-12-07T00:44:27;23.00;;;14.20;;
8365;SDS011;4220;42.502;24.188;2022-12-07T00:46:56;20.67;;;13.20;;
8365;SDS011;4220;42.502;24.188;2022-12-07T00:49:22;23.67;;;13.80;;
8365;SDS011;4220;42.502;24.188;2022-12-07T00:51:49;19.13;;;12.37;;
8365;SDS011;4220;42.502;24.188;2022-12-07T00:54:16;21.47;;;12.80;;
8365;SDS011;4220;42.502;24.188;2022-12-07T00:56:43;19.27;;;12.00;;
8365;SDS011;4220;42.502;24.188;2022-12-07T00:59:10;20.27;;;14.10;;
8365;SDS011;4220;42.502;24.188;2022-12-07T01:01:40;20.83;;;12.53;;
8365;SDS011;4220;42.502;24.188;2022-12-07T01:04:08;19.67;;;12.20;;
8365;SDS011;4220;42.502;24.188;2022-12-07T01:06:35;16.87;;;11.27;;
8365;SDS011;4220;42.502;24.188;2022-12-07T01:09:02;18.47;;;10.63;;
8365;SDS011;4220;42.502;24.188;2022-12-07T01:11:30;18.47;;;10.90;;
8365;SDS011;4220;42.502;24.188;2022-12-07T01:13:57;15.57;;;11.00;;
8365;SDS011;4220;42.502;24.188;2022-12-07T01:16:26;17.30;;;11.67;;
8365;SDS011;4220;42.502;24.188;2022-12-07T01:18:54;20.00;;;11.73;;
8365;SDS011;4220;42.502;24.188;2022-12-07T01:21:24;22.50;;;13.40;;
8365;SDS011;4220;42.502;24.188;2022-12-07T01:23:53;17.70;;;11.77;;
8365;SDS011;4220;42.502;24.188;2022-12-07T01:26:20;20.90;;;12.03;;
8365;SDS011;4220;42.502;24.188;2022-12-07T01:28:49;17.23;;;12.00;;
8365;SDS011;4220;42.502;24.188;2022-12-07T01:31:17;15.77;;;11.70;;
8365;SDS011;4220;42.502;24.188;2022-12-07T01:33:45;21.63;;;14.00;;
8365;SDS011;4220;42.502;24.188;2022-12-07T01:36:14;17.30;;;12.40;;
8365;SDS011;4220;42.502;24.188;2022-12-07T01:38:46;15.63;;;10.77;;
8365;SDS011;4220;42.502;24.188;2022-12-07T01:41:14;18.27;;;11.00;;
8365;SDS011;4220;42.502;24.188;2022-12-07T01:46:42;17.03;;;11.20;;
8365;SDS011;4220;42.502;24.188;2022-12-07T01:49:12;18.57;;;11.40;;
8365;SDS011;4220;42.502;24.188;2022-12-07T01:51:47;15.50;;;11.50;;
8365;SDS011;4220;42.502;24.188;2022-12-07T01:54:18;17.57;;;11.23;;
8365;SDS011;4220;42.502;24.188;2022-12-07T01:56:48;15.37;;;10.70;;
8365;SDS011;4220;42.502;24.188;2022-12-07T01:59:18;15.50;;;10.13;;
8365;SDS011;4220;42.502;24.188;2022-12-07T02:01:49;14.43;;;10.37;;
8365;SDS011;4220;42.502;24.188;2022-12-07T02:04:17;16.17;;;10.50;;
8365;SDS011;4220;42.502;24.188;2022-12-07T02:06:44;14.23;;;10.13;;
8365;SDS011;4220;42.502;24.188;2022-12-07T02:09:13;14.73;;;10.43;;
8365;SDS011;4220;42.502;24.188;2022-12-07T02:11:41;17.23;;;11.00;;
8365;SDS011;4220;42.502;24.188;2022-12-07T02:14:08;19.87;;;10.90;;
8365;SDS011;4220;42.502;24.188;2022-12-07T02:16:37;14.73;;;10.33;;
8365;SDS011;4220;42.502;24.188;2022-12-07T02:19:18;18.37;;;11.27;;
8365;SDS011;4220;42.502;24.188;2022-12-07T02:22:08;19.33;;;11.33;;
8365;SDS011;4220;42.502;24.188;2022-12-07T02:24:54;16.07;;;11.57;;
8365;SDS011;4220;42.502;24.188;2022-12-07T02:27:39;16.00;;;11.13;;
8365;SDS011;4220;42.502;24.188;2022-12-07T02:30:13;19.47;;;12.07;;
8365;SDS011;4220;42.502;24.188;2022-12-07T02:32:43;16.13;;;10.87;;
8365;SDS011;4220;42.502;24.188;2022-12-07T02:35:16;18.03;;;12.10;;
8365;SDS011;4220;42.502;24.188;2022-12-07T02:37:51;18.73;;;12.10;;
8365;SDS011;4220;42.502;24.188;2022-12-07T02:40:25;22.00;;;12.47;;
8365;SDS011;4220;42.502;24.188;2022-12-07T02:42:58;16.23;;;11.57;;
8365;SDS011;4220;42.502;24.188;2022-12-07T02:45:32;21.93;;;13.13;;
8365;SDS011;4220;42.502;24.188;2022-12-07T02:48:02;18.43;;;12.10;;
8365;SDS011;4220;42.502;24.188;2022-12-07T02:50:31;20.77;;;12.93;;
8365;SDS011;4220;42.502;24.188;2022-12-07T02:52:58;19.93;;;13.60;;
8365;SDS011;4220;42.502;24.188;2022-12-07T02:55:26;29.10;;;14.97;;
8365;SDS011;4220;42.502;24.188;2022-12-07T02:58:03;22.43;;;14.40;;
8365;SDS011;4220;42.502;24.188;2022-12-07T03:00:43;18.50;;;12.80;;
8365;SDS011;4220;42.502;24.188;2022-12-07T03:03:18;17.07;;;10.80;;
8365;SDS011;4220;42.502;24.188;2022-12-07T03:05:54;14.00;;;10.70;;
8365;SDS011;4220;42.502;24.188;2022-12-07T03:08:31;14.17;;;10.00;;
8365;SDS011;4220;42.502;24.188;2022-12-07T03:11:05;17.30;;;11.83;;
8365;SDS011;4220;42.502;24.188;2022-12-07T03:13:37;18.63;;;11.07;;
8365;SDS011;4220;42.502;24.188;2022-12-07T03:16:10;14.73;;;10.90;;
8365;SDS011;4220;42.502;24.188;2022-12-07T03:18:43;15.00;;;10.33;;
8365;SDS011;4220;42.502;24.188;2022-12-07T03:21:14;18.47;;;11.43;;
8365;SDS011;4220;42.502;24.188;2022-12-07T03:23:44;17.87;;;11.47;;
8365;SDS011;4220;42.502;24.188;2022-12-07T03:26:16;20.67;;;11.50;;
8365;SDS011;4220;42.502;24.188;2022-12-07T03:28:47;17.10;;;10.77;;
8365;SDS011;4220;42.502;24.188;2022-12-07T03:31:19;15.77;;;10.13;;
8365;SDS011;4220;42.502;24.188;2022-12-07T03:33:51;19.83;;;12.23;;
8365;SDS011;4220;42.502;24.188;2022-12-07T03:36:23;18.17;;;11.00;;
8365;SDS011;4220;42.502;24.188;2022-12-07T03:38:55;15.90;;;10.67;;
8365;SDS011;4220;42.502;24.188;2022-12-07T03:41:28;14.13;;;10.00;;
8365;SDS011;4220;42.502;24.188;2022-12-07T03:43:57;16.03;;;10.93;;
8365;SDS011;4220;42.502;24.188;2022-12-07T03:46:29;21.80;;;13.93;;
8365;SDS011;4220;42.502;24.188;2022-12-07T03:49:04;18.70;;;12.97;;
8365;SDS011;4220;42.502;24.188;2022-12-07T03:51:37;17.80;;;13.17;;
8365;SDS011;4220;42.502;24.188;2022-12-07T03:54:10;20.33;;;12.20;;
8365;SDS011;4220;42.502;24.188;2022-12-07T03:56:42;16.30;;;11.33;;
8365;SDS011;4220;42.502;24.188;2022-12-07T03:59:11;17.60;;;11.17;;
8365;SDS011;4220;42.502;24.188;2022-12-07T04:01:42;17.63;;;11.63;;
8365;SDS011;4220;42.502;24.188;2022-12-07T04:04:09;19.03;;;11.07;;
8365;SDS011;4220;42.502;24.188;2022-12-07T04:06:36;17.93;;;12.30;;
8365;SDS011;4220;42.502;24.188;2022-12-07T04:09:03;30.77;;;18.83;;
8365;SDS011;4220;42.502;24.188;2022-12-07T04:11:30;45.07;;;26.33;;
8365;SDS011;4220;42.502;24.188;2022-12-07T04:13:57;35.17;;;22.00;;
8365;SDS011;4220;42.502;24.188;2022-12-07T04:16:40;26.00;;;19.57;;
8365;SDS011;4220;42.502;24.188;2022-12-07T04:19:09;21.37;;;16.17;;
8365;SDS011;4220;42.502;24.188;2022-12-07T04:21:35;26.03;;;15.80;;
8365;SDS011;4220;42.502;24.188;2022-12-07T04:24:02;21.40;;;14.20;;
8365;SDS011;4220;42.502;24.188;2022-12-07T04:26:30;28.73;;;16.67;;
8365;SDS011;4220;42.502;24.188;2022-12-07T04:28:57;20.83;;;12.27;;
8365;SDS011;4220;42.502;24.188;2022-12-07T04:31:24;21.87;;;13.67;;
8365;SDS011;4220;42.502;24.188;2022-12-07T04:33:52;26.23;;;15.40;;
8365;SDS011;4220;42.502;24.188;2022-12-07T04:36:19;24.67;;;15.03;;
8365;SDS011;4220;42.502;24.188;2022-12-07T04:38:45;21.87;;;13.77;;
8365;SDS011;4220;42.502;24.188;2022-12-07T04:41:12;21.70;;;13.73;;
8365;SDS011;4220;42.502;24.188;2022-12-07T04:43:40;22.03;;;13.83;;
8365;SDS011;4220;42.502;24.188;2022-12-07T04:46:06;17.47;;;12.90;;
8365;SDS011;4220;42.502;24.188;2022-12-07T04:48:33;24.07;;;13.53;;
8365;SDS011;4220;42.502;24.188;2022-12-07T04:51:01;33.20;;;25.10;;
8365;SDS011;4220;42.502;24.188;2022-12-07T04:53:28;29.47;;;16.90;;
8365;SDS011;4220;42.502;24.188;2022-12-07T04:55:55;21.17;;;15.43;;
8365;SDS011;4220;42.502;24.188;2022-12-07T04:58:22;24.73;;;16.27;;
8365;SDS011;4220;42.502;24.188;2022-12-07T05:00:49;24.23;;;15.13;;
8365;SDS011;4220;42.502;24.188;2022-12-07T05:03:16;23.47;;;17.57;;
8365;SDS011;4220;42.502;24.188;2022-12-07T05:05:42;27.87;;;19.03;;
8365;SDS011;4220;42.502;24.188;2022-12-07T05:08:11;27.87;;;18.87;;
8365;SDS011;4220;42.502;24.188;2022-12-07T05:10:38;29.37;;;19.30;;
8365;SDS011;4220;42.502;24.188;2022-12-07T05:13:04;29.57;;;19.97;;
8365;SDS011;4220;42.502;24.188;2022-12-07T05:15:31;26.97;;;18.73;;
8365;SDS011;4220;42.502;24.188;2022-12-07T05:17:58;32.43;;;22.10;;
8365;SDS011;4220;42.502;24.188;2022-12-07T05:20:25;44.63;;;28.07;;
8365;SDS011;4220;42.502;24.188;2022-12-07T05:22:52;45.53;;;31.03;;
8365;SDS011;4220;42.502;24.188;2022-12-07T05:25:20;41.77;;;27.43;;
8365;SDS011;4220;42.502;24.188;2022-12-07T05:27:47;41.20;;;27.37;;
8365;SDS011;4220;42.502;24.188;2022-12-07T05:30:13;48.53;;;27.73;;
8365;SDS011;4220;42.502;24.188;2022-12-07T05:32:40;40.70;;;25.93;;
8365;SDS011;4220;42.502;24.188;2022-12-07T05:35:07;39.17;;;24.67;;
8365;SDS011;4220;42.502;24.188;2022-12-07T05:37:35;35.33;;;21.70;;
8365;SDS011;4220;42.502;24.188;2022-12-07T05:40:02;36.47;;;24.63;;
8365;SDS011;4220;42.502;24.188;2022-12-07T05:42:30;42.73;;;28.00;;
8365;SDS011;4220;42.502;24.188;2022-12-07T05:44:57;35.83;;;25.67;;
8365;SDS011;4220;42.502;24.188;2022-12-07T05:47:24;35.47;;;27.20;;
8365;SDS011;4220;42.502;24.188;2022-12-07T05:49:51;39.50;;;26.60;;
8365;SDS011;4220;42.502;24.188;2022-12-07T05:52:18;47.67;;;29.83;;
8365;SDS011;4220;42.502;24.188;2022-12-07T05:54:45;30.53;;;20.67;;
8365;SDS011;4220;42.502;24.188;2022-12-07T05:57:12;32.73;;;17.87;;
8365;SDS011;4220;42.502;24.188;2022-12-07T05:59:40;41.50;;;22.07;;
8365;SDS011;4220;42.502;24.188;2022-12-07T06:02:06;40.13;;;23.50;;
8365;SDS011;4220;42.502;24.188;2022-12-07T06:04:36;48.70;;;26.53;;
8365;SDS011;4220;42.502;24.188;2022-12-07T06:07:06;38.03;;;25.07;;
8365;SDS011;4220;42.502;24.188;2022-12-07T06:09:33;159.70;;;101.30;;
8365;SDS011;4220;42.502;24.188;2022-12-07T06:12:00;369.37;;;231.33;;
8365;SDS011;4220;42.502;24.188;2022-12-07T06:14:47;214.33;;;123.70;;
8365;SDS011;4220;42.502;24.188;2022-12-07T06:17:14;292.63;;;192.00;;
8365;SDS011;4220;42.502;24.188;2022-12-07T06:19:41;386.77;;;265.07;;
8365;SDS011;4220;42.502;24.188;2022-12-07T06:22:09;275.63;;;191.70;;
8365;SDS011;4220;42.502;24.188;2022-12-07T06:24:36;295.97;;;191.23;;
8365;SDS011;4220;42.502;24.188;2022-12-07T06:27:03;354.87;;;230.60;;
8365;SDS011;4220;42.502;24.188;2022-12-07T06:29:31;343.00;;;209.97;;
8365;SDS011;4220;42.502;24.188;2022-12-07T06:31:59;273.60;;;176.27;;
8365;SDS011;4220;42.502;24.188;2022-12-07T06:34:26;243.10;;;152.63;;
8365;SDS011;4220;42.502;24.188;2022-12-07T06:36:53;128.33;;;81.10;;
8365;SDS011;4220;42.502;24.188;2022-12-07T06:39:21;268.50;;;167.13;;
8365;SDS011;4220;42.502;24.188;2022-12-07T06:41:50;175.10;;;111.83;;
8365;SDS011;4220;42.502;24.188;2022-12-07T06:44:18;51.53;;;36.40;;
8365;SDS011;4220;42.502;24.188;2022-12-07T06:46:45;35.27;;;18.43;;
8365;SDS011;4220;42.502;24.188;2022-12-07T06:49:13;20.13;;;14.53;;
8365;SDS011;4220;42.502;24.188;2022-12-07T06:51:40;23.50;;;16.73;;
8365;SDS011;4220;42.502;24.188;2022-12-07T06:54:07;25.60;;;15.33;;
8365;SDS011;4220;42.502;24.188;2022-12-07T06:56:34;25.60;;;15.60;;
8365;SDS011;4220;42.502;24.188;2022-12-07T06:59:01;23.53;;;15.17;;
8365;SDS011;4220;42.502;24.188;2022-12-07T07:01:29;27.93;;;17.43;;
8365;SDS011;4220;42.502;24.188;2022-12-07T07:03:55;31.37;;;21.27;;
8365;SDS011;4220;42.502;24.188;2022-12-07T07:06:24;38.93;;;24.37;;
8365;SDS011;4220;42.502;24.188;2022-12-07T07:08:51;36.60;;;24.20;;
8365;SDS011;4220;42.502;24.188;2022-12-07T07:11:18;47.47;;;28.57;;
8365;SDS011;4220;42.502;24.188;2022-12-07T07:13:45;48.50;;;32.77;;
8365;SDS011;4220;42.502;24.188;2022-12-07T07:16:12;50.57;;;32.70;;
8365;SDS011;4220;42.502;24.188;2022-12-07T07:18:39;40.53;;;27.37;;
8365;SDS011;4220;42.502;24.188;2022-12-07T07:21:05;34.47;;;23.53;;
8365;SDS011;4220;42.502;24.188;2022-12-07T07:23:34;35.77;;;25.87;;
8365;SDS011;4220;42.502;24.188;2022-12-07T07:26:01;50.43;;;33.30;;
8365;SDS011;4220;42.502;24.188;2022-12-07T07:28:28;76.30;;;46.60;;
8365;SDS011;4220;42.502;24.188;2022-12-07T07:30:55;61.63;;;35.37;;
8365;SDS011;4220;42.502;24.188;2022-12-07T07:33:21;92.80;;;45.13;;
8365;SDS011;4220;42.502;24.188;2022-12-07T07:35:48;111.93;;;52.63;;
8365;SDS011;4220;42.502;24.188;2022-12-07T07:38:15;56.43;;;34.60;;
8365;SDS011;4220;42.502;24.188;2022-12-07T07:40:43;45.97;;;30.13;;
8365;SDS011;4220;42.502;24.188;2022-12-07T07:43:10;45.67;;;30.53;;
8365;SDS011;4220;42.502;24.188;2022-12-07T07:45:37;41.23;;;28.57;;
8365;SDS011;4220;42.502;24.188;2022-12-07T07:48:04;44.83;;;28.77;;
8365;SDS011;4220;42.502;24.188;2022-12-07T07:50:31;47.50;;;28.53;;
8365;SDS011;4220;42.502;24.188;2022-12-07T07:52:57;39.90;;;25.40;;
8365;SDS011;4220;42.502;24.188;2022-12-07T07:55:24;37.03;;;24.30;;
8365;SDS011;4220;42.502;24.188;2022-12-07T07:57:53;37.43;;;24.77;;
8365;SDS011;4220;42.502;24.188;2022-12-07T08:00:20;36.40;;;23.57;;
8365;SDS011;4220;42.502;24.188;2022-12-07T08:02:48;41.67;;;28.63;;
8365;SDS011;4220;42.502;24.188;2022-12-07T08:05:14;46.97;;;31.40;;
8365;SDS011;4220;42.502;24.188;2022-12-07T08:07:42;56.60;;;34.63;;
8365;SDS011;4220;42.502;24.188;2022-12-07T08:10:09;51.83;;;35.70;;
8365;SDS011;4220;42.502;24.188;2022-12-07T08:12:39;54.53;;;36.47;;
8365;SDS011;4220;42.502;24.188;2022-12-07T08:15:23;50.37;;;33.30;;
8365;SDS011;4220;42.502;24.188;2022-12-07T08:17:50;46.60;;;33.67;;
8365;SDS011;4220;42.502;24.188;2022-12-07T08:20:17;51.03;;;33.20;;
8365;SDS011;4220;42.502;24.188;2022-12-07T08:22:44;51.00;;;33.60;;
8365;SDS011;4220;42.502;24.188;2022-12-07T08:25:10;50.63;;;33.30;;
8365;SDS011;4220;42.502;24.188;2022-12-07T08:27:37;46.03;;;32.37;;
8365;SDS011;4220;42.502;24.188;2022-12-07T08:30:04;54.67;;;33.60;;
8365;SDS011;4220;42.502;24.188;2022-12-07T08:32:33;51.10;;;34.10;;
8365;SDS011;4220;42.502;24.188;2022-12-07T08:35:00;53.63;;;36.00;;
8365;SDS011;4220;42.502;24.188;2022-12-07T08:37:27;49.10;;;33.80;;
8365;SDS011;4220;42.502;24.188;2022-12-07T08:39:54;44.83;;;31.97;;
8365;SDS011;4220;42.502;24.188;2022-12-07T08:42:21;46.80;;;31.53;;
8365;SDS011;4220;42.502;24.188;2022-12-07T08:44:52;39.63;;;28.07;;
8365;SDS011;4220;42.502;24.188;2022-12-07T08:47:19;39.30;;;28.77;;
8365;SDS011;4220;42.502;24.188;2022-12-07T08:49:47;35.37;;;24.97;;
8365;SDS011;4220;42.502;24.188;2022-12-07T08:52:18;30.73;;;23.67;;
8365;SDS011;4220;42.502;24.188;2022-12-07T08:54:45;34.67;;;25.20;;
8365;SDS011;4220;42.502;24.188;2022-12-07T08:57:12;31.00;;;22.27;;
8365;SDS011;4220;42.502;24.188;2022-12-07T08:59:39;33.43;;;22.80;;
8365;SDS011;4220;42.502;24.188;2022-12-07T09:02:05;32.93;;;22.63;;
8365;SDS011;4220;42.502;24.188;2022-12-07T09:04:32;38.53;;;24.27;;
8365;SDS011;4220;42.502;24.188;2022-12-07T09:07:01;36.70;;;24.43;;
8365;SDS011;4220;42.502;24.188;2022-12-07T09:09:28;37.57;;;25.17;;
8365;SDS011;4220;42.502;24.188;2022-12-07T09:11:54;28.80;;;20.93;;
8365;SDS011;4220;42.502;24.188;2022-12-07T09:14:21;30.03;;;21.10;;
8365;SDS011;4220;42.502;24.188;2022-12-07T09:16:48;30.70;;;21.70;;
8365;SDS011;4220;42.502;24.188;2022-12-07T09:19:15;44.50;;;23.13;;
8365;SDS011;4220;42.502;24.188;2022-12-07T09:21:42;31.87;;;20.23;;
8365;SDS011;4220;42.502;24.188;2022-12-07T09:24:11;30.10;;;18.30;;
8365;SDS011;4220;42.502;24.188;2022-12-07T09:26:37;42.43;;;27.20;;
8365;SDS011;4220;42.502;24.188;2022-12-07T09:29:05;26.97;;;18.20;;
8365;SDS011;4220;42.502;24.188;2022-12-07T09:31:32;25.43;;;16.33;;
8365;SDS011;4220;42.502;24.188;2022-12-07T09:34:01;32.33;;;16.93;;
8365;SDS011;4220;42.502;24.188;2022-12-07T09:36:29;24.30;;;15.43;;
8365;SDS011;4220;42.502;24.188;2022-12-07T09:38:56;25.13;;;17.23;;
8365;SDS011;4220;42.502;24.188;2022-12-07T09:41:25;27.90;;;17.00;;
8365;SDS011;4220;42.502;24.188;2022-12-07T09:43:55;30.33;;;18.43;;
8365;SDS011;4220;42.502;24.188;2022-12-07T09:46:34;23.47;;;15.77;;
8365;SDS011;4220;42.502;24.188;2022-12-07T09:49:02;28.17;;;18.03;;
8365;SDS011;4220;42.502;24.188;2022-12-07T09:51:30;23.50;;;16.23;;
8365;SDS011;4220;42.502;24.188;2022-12-07T09:53:58;14.70;;;11.70;;
8365;SDS011;4220;42.502;24.188;2022-12-07T09:56:28;18.10;;;12.67;;
8365;SDS011;4220;42.502;24.188;2022-12-07T09:58:58;17.30;;;11.03;;
8365;SDS011;4220;42.502;24.188;2022-12-07T10:01:27;14.83;;;10.97;;
8365;SDS011;4220;42.502;24.188;2022-12-07T10:03:58;17.90;;;12.07;;
8365;SDS011;4220;42.502;24.188;2022-12-07T10:06:28;18.37;;;11.00;;
8365;SDS011;4220;42.502;24.188;2022-12-07T10:08:55;17.83;;;10.57;;
8365;SDS011;4220;42.502;24.188;2022-12-07T10:11:22;14.73;;;10.13;;
8365;SDS011;4220;42.502;24.188;2022-12-07T10:13:51;14.40;;;9.73;;
8365;SDS011;4220;42.502;24.188;2022-12-07T10:16:32;16.70;;;10.07;;
8365;SDS011;4220;42.502;24.188;2022-12-07T10:19:23;13.87;;;10.53;;
8365;SDS011;4220;42.502;24.188;2022-12-07T10:22:01;13.63;;;10.00;;
8365;SDS011;4220;42.502;24.188;2022-12-07T10:24:30;15.63;;;11.87;;
8365;SDS011;4220;42.502;24.188;2022-12-07T10:26:57;14.30;;;9.50;;
8365;SDS011;4220;42.502;24.188;2022-12-07T10:29:28;12.80;;;8.70;;
8365;SDS011;4220;42.502;24.188;2022-12-07T10:31:57;15.57;;;10.33;;
8365;SDS011;4220;42.502;24.188;2022-12-07T10:34:26;15.82;;;9.98;;
8365;SDS011;4220;42.502;24.188;2022-12-07T10:37:06;20.17;;;14.43;;
8365;SDS011;4220;42.502;24.188;2022-12-07T10:39:40;13.63;;;9.23;;
8365;SDS011;4220;42.502;24.188;2022-12-07T10:42:15;112.67;;;70.47;;
8365;SDS011;4220;42.502;24.188;2022-12-07T10:44:46;65.13;;;44.90;;
8365;SDS011;4220;42.502;24.188;2022-12-07T10:47:17;29.83;;;20.10;;
8365;SDS011;4220;42.502;24.188;2022-12-07T10:58:57;20.53;;;14.03;;
8365;SDS011;4220;42.502;24.188;2022-12-07T11:01:41;20.27;;;13.70;;
8365;SDS011;4220;42.502;24.188;2022-12-07T11:04:17;16.80;;;13.57;;
8365;SDS011;4220;42.502;24.188;2022-12-07T11:06:52;24.30;;;17.60;;
8365;SDS011;4220;42.502;24.188;2022-12-07T11:12:25;16.03;;;12.07;;
8365;SDS011;4220;42.502;24.188;2022-12-07T11:15:03;18.37;;;13.00;;
8365;SDS011;4220;42.502;24.188;2022-12-07T11:17:42;17.50;;;11.77;;
8365;SDS011;4220;42.502;24.188;2022-12-07T11:20:20;25.47;;;16.03;;
8365;SDS011;4220;42.502;24.188;2022-12-07T11:23:00;21.50;;;15.93;;
8365;SDS011;4220;42.502;24.188;2022-12-07T11:25:38;28.53;;;19.23;;
8365;SDS011;4220;42.502;24.188;2022-12-07T11:28:18;25.03;;;15.97;;
8365;SDS011;4220;42.502;24.188;2022-12-07T11:30:58;32.67;;;21.57;;
8365;SDS011;4220;42.502;24.188;2022-12-07T11:33:37;19.90;;;13.87;;
8365;SDS011;4220;42.502;24.188;2022-12-07T11:36:11;28.37;;;19.13;;
8365;SDS011;4220;42.502;24.188;2022-12-07T11:38:58;24.10;;;18.57;;
8365;SDS011;4220;42.502;24.188;2022-12-07T11:41:28;25.90;;;16.63;;
8365;SDS011;4220;42.502;24.188;2022-12-07T11:43:59;21.23;;;14.40;;
8365;SDS011;4220;42.502;24.188;2022-12-07T11:46:36;16.73;;;11.60;;
8365;SDS011;4220;42.502;24.188;2022-12-07T11:49:14;14.80;;;10.15;;
8365;SDS011;4220;42.502;24.188;2022-12-07T11:51:48;13.23;;;10.00;;
8365;SDS011;4220;42.502;24.188;2022-12-07T11:54:19;21.25;;;10.75;;
8365;SDS011;4220;42.502;24.188;2022-12-07T11:56:50;19.00;;;13.55;;
8365;SDS011;4220;42.502;24.188;2022-12-07T11:59:22;22.08;;;15.60;;
8365;SDS011;4220;42.502;24.188;2022-12-07T12:01:53;22.55;;;16.73;;
8365;SDS011;4220;42.502;24.188;2022-12-07T12:04:29;12.52;;;10.40;;
8365;SDS011;4220;42.502;24.188;2022-12-07T12:07:00;16.15;;;11.90;;
8365;SDS011;4220;42.502;24.188;2022-12-07T12:09:29;57.80;;;45.35;;
8365;SDS011;4220;42.502;24.188;2022-12-07T12:15:26;14.85;;;11.30;;
8365;SDS011;4220;42.502;24.188;2022-12-07T12:18:10;11.75;;;9.07;;
8365;SDS011;4220;42.502;24.188;2022-12-07T12:20:55;11.98;;;9.02;;
8365;SDS011;4220;42.502;24.188;2022-12-07T12:23:27;11.60;;;9.32;;
8365;SDS011;4220;42.502;24.188;2022-12-07T12:26:03;12.30;;;8.18;;
8365;SDS011;4220;42.502;24.188;2022-12-07T12:28:35;14.45;;;11.68;;
8365;SDS011;4220;42.502;24.188;2022-12-07T12:31:07;16.15;;;10.32;;
8365;SDS011;4220;42.502;24.188;2022-12-07T12:33:38;17.70;;;13.77;;
8365;SDS011;4220;42.502;24.188;2022-12-07T12:36:19;27.00;;;18.00;;
8365;SDS011;4220;42.502;24.188;2022-12-07T12:38:52;19.48;;;13.95;;
8365;SDS011;4220;42.502;24.188;2022-12-07T12:47:53;19.30;;;14.75;;
8365;SDS011;4220;42.502;24.188;2022-12-07T12:50:23;19.35;;;13.93;;
8365;SDS011;4220;42.502;24.188;2022-12-07T12:56:01;28.45;;;20.40;;
8365;SDS011;4220;42.502;24.188;2022-12-07T12:58:42;48.50;;;31.17;;
8365;SDS011;4220;42.502;24.188;2022-12-07T13:07:03;23.38;;;17.58;;
8365;SDS011;4220;42.502;24.188;2022-12-07T13:09:33;20.67;;;13.45;;
8365;SDS011;4220;42.502;24.188;2022-12-07T13:12:02;20.77;;;13.23;;
8365;SDS011;4220;42.502;24.188;2022-12-07T13:14:51;16.38;;;12.75;;
8365;SDS011;4220;42.502;24.188;2022-12-07T13:20:47;19.88;;;13.68;;
8365;SDS011;4220;42.502;24.188;2022-12-07T13:23:21;22.85;;;14.93;;
8365;SDS011;4220;42.502;24.188;2022-12-07T13:26:04;18.88;;;13.35;;
8365;SDS011;4220;42.502;24.188;2022-12-07T13:28:40;25.45;;;17.67;;
8365;SDS011;4220;42.502;24.188;2022-12-07T13:31:15;19.67;;;13.98;;
8365;SDS011;4220;42.502;24.188;2022-12-07T13:33:47;19.02;;;13.05;;
8365;SDS011;4220;42.502;24.188;2022-12-07T13:36:19;26.38;;;17.92;;
8365;SDS011;4220;42.502;24.188;2022-12-07T13:38:49;27.67;;;18.00;;
8365;SDS011;4220;42.502;24.188;2022-12-07T13:41:20;25.58;;;18.30;;
8365;SDS011;4220;42.502;24.188;2022-12-07T13:43:49;18.17;;;13.50;;
8365;SDS011;4220;42.502;24.188;2022-12-07T13:46:19;22.60;;;14.67;;
8365;SDS011;4220;42.502;24.188;2022-12-07T13:48:52;19.97;;;14.87;;
8365;SDS011;4220;42.502;24.188;2022-12-07T13:51:22;24.20;;;15.40;;
8365;SDS011;4220;42.502;24.188;2022-12-07T13:53:51;23.93;;;16.27;;
8365;SDS011;4220;42.502;24.188;2022-12-07T13:56:22;75.23;;;52.00;;
8365;SDS011;4220;42.502;24.188;2022-12-07T13:58:54;268.23;;;167.00;;
8365;SDS011;4220;42.502;24.188;2022-12-07T14:01:21;130.80;;;82.40;;
8365;SDS011;4220;42.502;24.188;2022-12-07T14:03:48;40.70;;;26.87;;
8365;SDS011;4220;42.502;24.188;2022-12-07T14:06:17;38.33;;;23.70;;
8365;SDS011;4220;42.502;24.188;2022-12-07T14:08:47;25.83;;;17.77;;
8365;SDS011;4220;42.502;24.188;2022-12-07T14:11:15;28.23;;;18.63;;
8365;SDS011;4220;42.502;24.188;2022-12-07T14:13:50;26.77;;;16.60;;
8365;SDS011;4220;42.502;24.188;2022-12-07T14:16:24;30.43;;;19.53;;
8365;SDS011;4220;42.502;24.188;2022-12-07T14:18:54;34.23;;;22.03;;
8365;SDS011;4220;42.502;24.188;2022-12-07T14:21:22;40.57;;;30.07;;
8365;SDS011;4220;42.502;24.188;2022-12-07T14:24:11;48.30;;;34.33;;
8365;SDS011;4220;42.502;24.188;2022-12-07T14:26:42;46.43;;;30.87;;
8365;SDS011;4220;42.502;24.188;2022-12-07T14:32:19;47.63;;;32.60;;
8365;SDS011;4220;42.502;24.188;2022-12-07T14:34:56;41.37;;;30.03;;
8365;SDS011;4220;42.502;24.188;2022-12-07T14:37:25;49.77;;;33.27;;
8365;SDS011;4220;42.502;24.188;2022-12-07T14:39:52;38.77;;;25.23;;
8365;SDS011;4220;42.502;24.188;2022-12-07T14:42:19;36.23;;;24.50;;
8365;SDS011;4220;42.502;24.188;2022-12-07T14:44:48;35.53;;;25.80;;
8365;SDS011;4220;42.502;24.188;2022-12-07T14:47:14;34.43;;;25.13;;
8365;SDS011;4220;42.502;24.188;2022-12-07T14:49:41;31.67;;;22.80;;
8365;SDS011;4220;42.502;24.188;2022-12-07T14:52:11;38.37;;;26.10;;
8365;SDS011;4220;42.502;24.188;2022-12-07T14:54:42;38.07;;;28.33;;
8365;SDS011;4220;42.502;24.188;2022-12-07T14:57:10;45.20;;;29.30;;
8365;SDS011;4220;42.502;24.188;2022-12-07T14:59:37;33.53;;;22.53;;
8365;SDS011;4220;42.502;24.188;2022-12-07T15:02:06;30.20;;;20.43;;
8365;SDS011;4220;42.502;24.188;2022-12-07T15:04:35;35.90;;;23.63;;
8365;SDS011;4220;42.502;24.188;2022-12-07T15:07:03;33.17;;;22.93;;
8365;SDS011;4220;42.502;24.188;2022-12-07T15:09:32;35.80;;;24.23;;
8365;SDS011;4220;42.502;24.188;2022-12-07T15:11:58;41.93;;;23.90;;
8365;SDS011;4220;42.502;24.188;2022-12-07T15:14:25;39.00;;;25.63;;
8365;SDS011;4220;42.502;24.188;2022-12-07T15:16:52;158.33;;;98.63;;
8365;SDS011;4220;42.502;24.188;2022-12-07T15:19:21;215.93;;;136.30;;
8365;SDS011;4220;42.502;24.188;2022-12-07T15:21:51;50.17;;;31.70;;
8365;SDS011;4220;42.502;24.188;2022-12-07T15:24:19;42.47;;;27.40;;
8365;SDS011;4220;42.502;24.188;2022-12-07T15:26:46;44.03;;;29.57;;
8365;SDS011;4220;42.502;24.188;2022-12-07T15:29:13;37.83;;;25.33;;